Time;durP1;ratioP1;P1;durP2;ratioP2;P2;SDS_P1;SDS_P2;PMS_P1;PMS_P2;Temp;Humidity;BMP_temperature;BMP_pressure;BME280_temperature;BME280_humidity;BME280_pressure;Samples;Min_cycle;Max_cycle;Signal;HPM_P1;HPM_P2
2023/12/17 00:01:49;;;;;;;24.58;7.57;;;;;;;;;;7382734;19;20566;-76
2023/12/17 00:04:15;;;;;;;15.82;6.70;;;;;;;;;;7381733;19;20053;-77
2023/12/17 00:06:41;;;;;;;16.95;6.68;;;;;;;;;;7399740;19;19999;-76
2023/12/17 00:09:07;;;;;;;20.13;6.40;;;;;;;;;;7382521;19;20010;-76
2023/12/17 00:11:39;;;;;;;18.20;6.38;;;;;;;;;;7383335;19;20007;-76
2023/12/17 00:14:05;;;;;;;15.55;6.45;;;;;;;;;;7380601;19;20006;-76
2023/12/17 00:16:30;;;;;;;16.95;6.95;;;;;;;;;;7384816;19;20008;-75
2023/12/17 00:18:55;;;;;;;16.38;6.55;;;;;;;;;;7385232;19;19999;-76
2023/12/17 00:21:21;;;;;;;16.08;6.95;;;;;;;;;;7404249;19;20002;-76
2023/12/17 00:23:46;;;;;;;21.92;7.00;;;;;;;;;;7380180;19;20058;-75
2023/12/17 00:26:11;;;;;;;14.95;6.82;;;;;;;;;;7382421;19;20002;-76
2023/12/17 00:28:37;;;;;;;19.98;6.68;;;;;;;;;;7382886;19;20116;-76
2023/12/17 00:31:02;;;;;;;16.45;6.38;;;;;;;;;;7382534;19;19994;-76
2023/12/17 00:33:27;;;;;;;17.13;6.60;;;;;;;;;;7401620;19;19995;-76
2023/12/17 00:35:54;;;;;;;16.73;6.57;;;;;;;;;;7378370;19;20003;-76
2023/12/17 00:38:20;;;;;;;13.30;6.28;;;;;;;;;;7380512;19;20056;-76
2023/12/17 00:40:46;;;;;;;17.55;6.93;;;;;;;;;;7381463;19;20035;-76
2023/12/17 00:43:11;;;;;;;15.70;6.68;;;;;;;;;;7379472;19;20548;-76
2023/12/17 00:45:37;;;;;;;15.80;7.00;;;;;;;;;;7402438;19;20031;-77
2023/12/17 00:48:02;;;;;;;20.13;7.35;;;;;;;;;;7379139;19;20002;-77
2023/12/17 00:50:29;;;;;;;20.17;6.93;;;;;;;;;;7378783;19;20007;-77
2023/12/17 00:52:54;;;;;;;17.05;6.60;;;;;;;;;;7380312;19;20011;-77
2023/12/17 00:55:19;;;;;;;16.88;7.15;;;;;;;;;;7383302;19;20029;-76
2023/12/17 00:57:45;;;;;;;16.25;6.95;;;;;;;;;;7401760;19;19998;-77
2023/12/17 01:00:11;;;;;;;13.40;6.22;;;;;;;;;;7381722;19;20010;-77
2023/12/17 01:02:37;;;;;;;16.48;6.72;;;;;;;;;;7377949;19;20011;-77
2023/12/17 01:05:03;;;;;;;16.63;6.28;;;;;;;;;;7381292;19;20010;-77
2023/12/17 01:07:28;;;;;;;17.60;7.45;;;;;;;;;;7377630;19;20005;-77
2023/12/17 01:09:53;;;;;;;16.10;7.30;;;;;;;;;;7403414;19;20017;-77
2023/12/17 01:12:19;;;;;;;14.88;7.10;;;;;;;;;;7381428;19;20003;-76
2023/12/17 01:14:44;;;;;;;21.25;8.30;;;;;;;;;;7379004;19;20036;-76
2023/12/17 01:17:10;;;;;;;22.15;7.95;;;;;;;;;;7379724;19;20013;-77
2023/12/17 01:19:39;;;;;;;15.57;7.60;;;;;;;;;;7380763;19;20023;-77
2023/12/17 01:22:05;;;;;;;15.57;7.28;;;;;;;;;;7379374;19;20015;-77
2023/12/17 01:24:31;;;;;;;17.13;7.78;;;;;;;;;;7399482;19;20036;-77
2023/12/17 01:26:57;;;;;;;16.55;7.15;;;;;;;;;;7377728;19;20028;-76
2023/12/17 01:29:23;;;;;;;17.35;6.97;;;;;;;;;;7381599;19;20426;-76
2023/12/17 01:31:48;;;;;;;17.48;7.65;;;;;;;;;;7383657;19;20035;-75
2023/12/17 01:34:14;;;;;;;16.30;7.18;;;;;;;;;;7377555;19;20011;-75
2023/12/17 01:36:39;;;;;;;12.18;6.63;;;;;;;;;;7402854;19;20010;-75
2023/12/17 01:39:04;;;;;;;17.80;7.85;;;;;;;;;;7377624;19;20002;-75
2023/12/17 01:41:30;;;;;;;20.00;7.70;;;;;;;;;;7381873;19;20105;-76
2023/12/17 01:43:55;;;;;;;18.77;7.95;;;;;;;;;;7383543;19;19998;-76
2023/12/17 01:46:21;;;;;;;15.60;7.38;;;;;;;;;;7381512;19;20017;-76
2023/12/17 01:48:46;;;;;;;18.52;7.30;;;;;;;;;;7402209;19;20113;-77
2023/12/17 01:51:12;;;;;;;15.23;7.05;;;;;;;;;;7383583;19;20002;-76
2023/12/17 01:53:39;;;;;;;15.00;6.90;;;;;;;;;;7380862;19;20026;-77
2023/12/17 01:56:06;;;;;;;19.42;6.88;;;;;;;;;;7381140;19;20018;-76
2023/12/17 01:58:31;;;;;;;16.63;6.63;;;;;;;;;;7380004;19;20010;-78
2023/12/17 02:01:01;;;;;;;18.10;6.70;;;;;;;;;;7383334;19;20027;-76
2023/12/17 02:03:26;;;;;;;21.23;6.70;;;;;;;;;;7400379;19;20028;-75
2023/12/17 02:05:52;;;;;;;13.73;6.35;;;;;;;;;;7376861;19;19995;-76
2023/12/17 02:08:17;;;;;;;16.40;6.93;;;;;;;;;;7380053;19;20059;-76
2023/12/17 02:10:43;;;;;;;17.42;6.70;;;;;;;;;;7378313;19;20003;-76
2023/12/17 02:13:10;;;;;;;17.58;7.30;;;;;;;;;;7374084;19;20016;-76
2023/12/17 02:15:37;;;;;;;15.13;6.07;;;;;;;;;;7401781;19;20027;-75
2023/12/17 02:18:03;;;;;;;25.77;7.63;;;;;;;;;;7378275;19;20002;-75
2023/12/17 02:20:28;;;;;;;17.83;6.88;;;;;;;;;;7375867;19;20007;-77
2023/12/17 02:22:57;;;;;;;15.85;6.43;;;;;;;;;;7376531;19;20175;-77
2023/12/17 02:25:24;;;;;;;17.15;7.18;;;;;;;;;;7377874;19;20006;-77
2023/12/17 02:27:49;;;;;;;21.05;7.05;;;;;;;;;;7401554;19;19994;-75
2023/12/17 02:30:15;;;;;;;14.73;7.93;;;;;;;;;;7380507;19;20010;-76
2023/12/17 02:32:40;;;;;;;16.42;6.93;;;;;;;;;;7374723;19;20460;-75
2023/12/17 02:35:06;;;;;;;19.55;7.53;;;;;;;;;;7378667;19;20007;-76
2023/12/17 02:37:31;;;;;;;19.42;7.28;;;;;;;;;;7378941;19;20773;-76
2023/12/17 02:39:56;;;;;;;19.13;6.78;;;;;;;;;;7381418;19;19998;-76
2023/12/17 02:42:22;;;;;;;18.65;8.15;;;;;;;;;;7399334;19;20515;-76
2023/12/17 02:44:48;;;;;;;15.38;7.18;;;;;;;;;;7374721;19;20002;-76
2023/12/17 02:47:13;;;;;;;16.20;7.40;;;;;;;;;;7373227;19;19998;-76
2023/12/17 02:49:40;;;;;;;17.60;7.97;;;;;;;;;;7373648;19;20352;-76
2023/12/17 02:52:06;;;;;;;15.82;6.95;;;;;;;;;;7378862;19;19999;-76
2023/12/17 02:54:31;;;;;;;14.48;7.18;;;;;;;;;;7405794;19;19998;-75
2023/12/17 02:56:56;;;;;;;16.20;7.47;;;;;;;;;;7382180;19;20070;-76
2023/12/17 02:59:22;;;;;;;17.20;7.35;;;;;;;;;;7384062;19;20003;-76
2023/12/17 03:01:47;;;;;;;18.73;8.25;;;;;;;;;;7382717;19;19995;-76
2023/12/17 03:04:13;;;;;;;15.20;7.18;;;;;;;;;;7378707;19;20025;-76
2023/12/17 03:06:39;;;;;;;15.15;7.60;;;;;;;;;;7403971;19;20468;-76
2023/12/17 03:09:05;;;;;;;16.58;8.00;;;;;;;;;;7386455;19;20066;-76
2023/12/17 03:11:31;;;;;;;19.60;8.10;;;;;;;;;;7384294;19;20027;-77
2023/12/17 03:13:57;;;;;;;18.77;7.88;;;;;;;;;;7383942;19;20010;-76
2023/12/17 03:16:23;;;;;;;15.95;7.20;;;;;;;;;;7385111;19;20019;-77
2023/12/17 03:18:49;;;;;;;18.15;7.45;;;;;;;;;;7405912;19;19999;-76
2023/12/17 03:21:14;;;;;;;15.52;7.82;;;;;;;;;;7387505;19;20010;-77
2023/12/17 03:23:39;;;;;;;22.45;7.85;;;;;;;;;;7379226;19;20007;-76
2023/12/17 03:26:15;;;;;;;17.83;7.75;;;;;;;;;;7378309;19;20022;-77
2023/12/17 03:28:40;;;;;;;21.13;7.63;;;;;;;;;;7380437;19;20034;-76
2023/12/17 03:31:06;;;;;;;21.67;6.97;;;;;;;;;;7384354;19;20006;-77
2023/12/17 03:33:31;;;;;;;16.63;7.78;;;;;;;;;;7401870;19;20006;-76
2023/12/17 03:35:56;;;;;;;19.35;7.60;;;;;;;;;;7387814;19;20043;-76
2023/12/17 03:38:22;;;;;;;19.27;7.88;;;;;;;;;;7398090;19;19998;-76
2023/12/17 03:40:47;;;;;;;16.55;7.10;;;;;;;;;;7394598;19;20066;-77
2023/12/17 03:43:14;;;;;;;23.23;8.70;;;;;;;;;;7395074;19;19991;-77
2023/12/17 03:45:39;;;;;;;20.40;7.68;;;;;;;;;;7416933;19;20031;-77
2023/12/17 03:48:06;;;;;;;19.40;7.22;;;;;;;;;;7390739;19;20006;-77
2023/12/17 03:50:32;;;;;;;14.20;8.07;;;;;;;;;;7387230;19;20033;-76
2023/12/17 03:52:57;;;;;;;20.65;7.55;;;;;;;;;;7384683;19;20370;-76
2023/12/17 03:55:22;;;;;;;17.45;8.05;;;;;;;;;;7384018;19;20037;-75
2023/12/17 03:57:48;;;;;;;18.48;7.47;;;;;;;;;;7402657;19;20037;-75
2023/12/17 04:00:15;;;;;;;17.35;7.28;;;;;;;;;;7381408;19;19999;-76
2023/12/17 04:02:40;;;;;;;18.00;7.70;;;;;;;;;;7382898;19;20020;-75
2023/12/17 04:05:07;;;;;;;17.02;7.47;;;;;;;;;;7383451;19;20002;-76
2023/12/17 04:07:32;;;;;;;18.20;7.10;;;;;;;;;;7380248;19;20010;-76
2023/12/17 04:10:00;;;;;;;14.65;6.32;;;;;;;;;;7382102;19;19995;-76
2023/12/17 04:12:25;;;;;;;21.33;7.82;;;;;;;;;;7404058;19;20002;-76
2023/12/17 04:14:51;;;;;;;14.68;6.93;;;;;;;;;;7378362;19;20011;-76
2023/12/17 04:17:16;;;;;;;17.48;6.60;;;;;;;;;;7385148;19;19991;-76
2023/12/17 04:19:41;;;;;;;17.45;7.55;;;;;;;;;;7381442;19;20017;-76
2023/12/17 04:22:07;;;;;;;19.10;7.85;;;;;;;;;;7384099;19;19998;-77
2023/12/17 04:24:32;;;;;;;17.50;7.25;;;;;;;;;;7402055;19;20103;-76
2023/12/17 04:26:58;;;;;;;16.77;7.93;;;;;;;;;;7378828;19;20012;-75
2023/12/17 04:29:23;;;;;;;20.30;7.50;;;;;;;;;;7383960;19;19998;-76
2023/12/17 04:31:48;;;;;;;17.63;8.05;;;;;;;;;;7381849;19;20009;-76
2023/12/17 04:34:14;;;;;;;16.10;7.75;;;;;;;;;;7381979;19;20032;-76
2023/12/17 04:36:41;;;;;;;15.32;8.02;;;;;;;;;;7404558;19;20014;-77
2023/12/17 04:39:07;;;;;;;15.68;7.60;;;;;;;;;;7378227;19;20011;-76
2023/12/17 04:41:33;;;;;;;18.63;7.82;;;;;;;;;;7378094;19;20803;-76
2023/12/17 04:43:59;;;;;;;17.25;7.53;;;;;;;;;;7376266;19;20384;-76
2023/12/17 04:46:24;;;;;;;18.95;8.52;;;;;;;;;;7372315;19;20007;-76
2023/12/17 04:48:50;;;;;;;16.90;8.40;;;;;;;;;;7401992;19;20014;-76
2023/12/17 04:51:16;;;;;;;20.23;8.55;;;;;;;;;;7377200;19;20003;-76
2023/12/17 04:53:42;;;;;;;17.85;8.15;;;;;;;;;;7382003;19;20467;-77
2023/12/17 04:56:08;;;;;;;16.67;8.45;;;;;;;;;;7377040;19;20006;-76
2023/12/17 04:58:33;;;;;;;17.08;9.05;;;;;;;;;;7377445;19;19999;-76
2023/12/17 05:00:59;;;;;;;18.45;8.63;;;;;;;;;;7382742;19;20005;-76
2023/12/17 05:03:26;;;;;;;17.35;9.27;;;;;;;;;;7405117;19;20070;-76
2023/12/17 05:05:51;;;;;;;16.77;7.85;;;;;;;;;;7379611;19;20002;-76
2023/12/17 05:08:19;;;;;;;18.33;8.88;;;;;;;;;;7383022;19;20492;-76
2023/12/17 05:10:45;;;;;;;18.30;9.07;;;;;;;;;;7383665;19;20014;-75
2023/12/17 05:13:11;;;;;;;17.60;8.15;;;;;;;;;;7381158;19;20006;-76
2023/12/17 05:15:36;;;;;;;20.35;8.32;;;;;;;;;;7399921;19;19995;-76
2023/12/17 05:18:02;;;;;;;15.73;8.50;;;;;;;;;;7375999;19;20010;-76
2023/12/17 05:20:28;;;;;;;16.50;8.40;;;;;;;;;;7380184;19;20003;-75
2023/12/17 05:22:53;;;;;;;18.27;9.68;;;;;;;;;;7379320;19;20058;-76
2023/12/17 05:25:19;;;;;;;20.08;10.00;;;;;;;;;;7382297;19;20006;-77
2023/12/17 05:27:44;;;;;;;19.58;9.23;;;;;;;;;;7401344;19;20002;-77
2023/12/17 05:30:11;;;;;;;19.83;9.98;;;;;;;;;;7380167;19;20077;-77
2023/12/17 05:32:36;;;;;;;17.35;8.77;;;;;;;;;;7383586;19;20010;-76
2023/12/17 05:35:02;;;;;;;18.00;9.43;;;;;;;;;;7383124;19;19995;-76
2023/12/17 05:37:27;;;;;;;19.05;9.20;;;;;;;;;;7380433;19;20000;-76
2023/12/17 05:39:53;;;;;;;17.38;9.38;;;;;;;;;;7407115;19;20013;-77
2023/12/17 05:42:18;;;;;;;22.02;9.50;;;;;;;;;;7385280;19;20010;-77
2023/12/17 05:44:44;;;;;;;18.92;8.98;;;;;;;;;;7381262;19;20079;-77
2023/12/17 05:47:09;;;;;;;22.63;9.50;;;;;;;;;;7382940;19;20017;-77
2023/12/17 05:49:38;;;;;;;17.92;9.15;;;;;;;;;;7380202;19;20014;-76
2023/12/17 05:52:04;;;;;;;17.48;8.50;;;;;;;;;;7378689;19;19999;-77
2023/12/17 05:54:30;;;;;;;22.17;9.57;;;;;;;;;;7399656;19;20002;-76
2023/12/17 05:56:55;;;;;;;23.65;9.18;;;;;;;;;;7380756;19;20030;-77
2023/12/17 05:59:21;;;;;;;22.95;8.82;;;;;;;;;;7379778;19;19999;-77
2023/12/17 06:01:46;;;;;;;18.02;8.60;;;;;;;;;;7378473;19;20014;-77
2023/12/17 06:04:12;;;;;;;16.15;8.43;;;;;;;;;;7378186;19;20012;-76
2023/12/17 06:06:37;;;;;;;15.95;8.50;;;;;;;;;;7405681;19;19999;-76
2023/12/17 06:09:03;;;;;;;17.42;7.93;;;;;;;;;;7383348;19;20465;-76
2023/12/17 06:11:29;;;;;;;18.25;7.65;;;;;;;;;;7378454;19;20032;-76
2023/12/17 06:13:54;;;;;;;17.33;7.10;;;;;;;;;;7379536;19;19994;-76
2023/12/17 06:16:19;;;;;;;11.40;6.18;;;;;;;;;;7378402;19;20009;-75
2023/12/17 06:18:45;;;;;;;11.38;6.78;;;;;;;;;;7403096;19;20003;-76
2023/12/17 06:21:23;;;;;;;12.40;6.32;;;;;;;;;;7381412;19;19999;-76
2023/12/17 06:23:50;;;;;;;11.73;6.35;;;;;;;;;;7377623;19;20006;-75
2023/12/17 06:26:15;;;;;;;12.38;6.50;;;;;;;;;;7380107;19;20010;-76
2023/12/17 06:28:41;;;;;;;18.83;7.30;;;;;;;;;;7381337;19;20002;-75
2023/12/17 06:31:06;;;;;;;12.38;6.00;;;;;;;;;;7387644;19;19995;-75
2023/12/17 06:33:31;;;;;;;12.40;6.68;;;;;;;;;;7408750;19;20091;-76
2023/12/17 06:35:57;;;;;;;12.30;6.30;;;;;;;;;;7388639;19;20006;-76
2023/12/17 06:38:22;;;;;;;14.70;6.97;;;;;;;;;;7390223;19;20002;-75
2023/12/17 06:40:48;;;;;;;15.52;6.72;;;;;;;;;;7388929;19;20019;-76
2023/12/17 06:43:13;;;;;;;16.10;6.68;;;;;;;;;;7391557;19;20003;-76
2023/12/17 06:45:40;;;;;;;25.80;14.57;;;;;;;;;;7411239;19;19995;-76
2023/12/17 06:48:05;;;;;;;27.50;12.35;;;;;;;;;;7390294;19;20007;-76
2023/12/17 06:50:31;;;;;;;24.77;12.50;;;;;;;;;;7387321;19;20002;-76
2023/12/17 06:52:57;;;;;;;23.90;11.85;;;;;;;;;;7378821;19;20409;-76
2023/12/17 06:55:22;;;;;;;27.58;13.63;;;;;;;;;;7380325;19;19998;-76
2023/12/17 06:57:48;;;;;;;27.77;12.50;;;;;;;;;;7396020;19;19999;-80
2023/12/17 07:00:15;;;;;;;22.88;12.13;;;;;;;;;;7382678;19;20415;-76
2023/12/17 07:02:40;;;;;;;20.98;11.35;;;;;;;;;;7378840;19;20010;-77
2023/12/17 07:05:05;;;;;;;24.55;12.40;;;;;;;;;;7373719;19;19998;-78
2023/12/17 07:07:31;;;;;;;21.48;12.43;;;;;;;;;;7375109;19;20010;-79
2023/12/17 07:09:56;;;;;;;28.90;14.10;;;;;;;;;;7386349;19;20295;-77
2023/12/17 07:12:21;;;;;;;26.15;13.15;;;;;;;;;;7403075;19;20050;-77
2023/12/17 07:14:47;;;;;;;27.38;13.10;;;;;;;;;;7374080;19;20023;-78
2023/12/17 07:17:12;;;;;;;23.90;13.07;;;;;;;;;;7373399;19;20121;-79
2023/12/17 07:19:37;;;;;;;24.65;13.50;;;;;;;;;;7380777;19;20097;-80
2023/12/17 07:22:03;;;;;;;25.77;12.85;;;;;;;;;;7391537;19;20011;-75
2023/12/17 07:24:28;;;;;;;23.38;12.80;;;;;;;;;;7404616;19;20050;-77
2023/12/17 07:26:53;;;;;;;26.77;12.32;;;;;;;;;;7368633;19;20034;-75
2023/12/17 07:29:19;;;;;;;21.77;12.32;;;;;;;;;;7371848;19;20561;-74
2023/12/17 07:31:44;;;;;;;27.58;12.65;;;;;;;;;;7385103;19;20082;-77
2023/12/17 07:34:10;;;;;;;29.58;13.02;;;;;;;;;;7382790;19;20007;-76
2023/12/17 07:36:35;;;;;;;21.42;11.88;;;;;;;;;;7399898;19;20002;-77
2023/12/17 07:39:04;;;;;;;25.88;12.73;;;;;;;;;;7375339;19;20108;-76
2023/12/17 07:41:30;;;;;;;28.08;13.45;;;;;;;;;;7379036;19;20003;-77
2023/12/17 07:43:55;;;;;;;22.20;12.45;;;;;;;;;;7374789;19;20316;-77
2023/12/17 07:46:21;;;;;;;28.52;12.88;;;;;;;;;;7380459;19;20007;-77
2023/12/17 07:48:46;;;;;;;29.33;13.07;;;;;;;;;;7407215;19;20042;-76
2023/12/17 07:51:12;;;;;;;28.33;13.30;;;;;;;;;;7375326;19;20002;-77
2023/12/17 07:53:37;;;;;;;27.58;12.85;;;;;;;;;;7380425;19;20066;-77
2023/12/17 07:56:03;;;;;;;26.35;12.73;;;;;;;;;;7381922;19;20009;-76
2023/12/17 07:58:31;;;;;;;26.48;13.20;;;;;;;;;;7381356;19;20006;-77
2023/12/17 08:00:56;;;;;;;20.13;11.45;;;;;;;;;;7383729;19;20006;-77
2023/12/17 08:03:23;;;;;;;25.25;11.00;;;;;;;;;;7401034;19;20010;-77
2023/12/17 08:05:49;;;;;;;19.30;10.23;;;;;;;;;;7378345;19;20090;-77
2023/12/17 08:08:15;;;;;;;23.15;10.73;;;;;;;;;;7380660;19;20013;-76
2023/12/17 08:10:40;;;;;;;21.27;11.95;;;;;;;;;;7379156;19;20010;-77
2023/12/17 08:13:06;;;;;;;22.23;9.65;;;;;;;;;;7380210;19;20066;-77
2023/12/17 08:15:31;;;;;;;19.58;9.40;;;;;;;;;;7404063;19;20064;-77
2023/12/17 08:17:56;;;;;;;21.45;10.88;;;;;;;;;;7383280;19;20011;-76
2023/12/17 08:20:22;;;;;;;18.23;9.95;;;;;;;;;;7378974;19;20014;-77
2023/12/17 08:22:47;;;;;;;18.63;10.15;;;;;;;;;;7379058;19;20014;-77
2023/12/17 08:25:13;;;;;;;19.73;10.40;;;;;;;;;;7380396;19;20423;-76
2023/12/17 08:27:38;;;;;;;18.52;9.50;;;;;;;;;;7399745;19;20002;-76
2023/12/17 08:30:04;;;;;;;19.70;9.20;;;;;;;;;;7378651;19;20519;-76
2023/12/17 08:32:33;;;;;;;23.02;10.27;;;;;;;;;;7380528;19;20034;-77
2023/12/17 08:34:59;;;;;;;36.78;18.88;;;;;;;;;;7381597;19;20010;-77
2023/12/17 08:37:26;;;;;;;34.03;14.82;;;;;;;;;;7379344;19;20010;-77
2023/12/17 08:39:55;;;;;;;36.70;18.80;;;;;;;;;;7399860;19;20015;-77
2023/12/17 08:42:21;;;;;;;33.08;14.68;;;;;;;;;;7379215;19;19998;-77
2023/12/17 08:44:47;;;;;;;29.10;11.63;;;;;;;;;;7378125;19;20010;-77
2023/12/17 08:47:12;;;;;;;37.20;22.65;;;;;;;;;;7378552;19;20015;-77
2023/12/17 08:49:38;;;;;;;32.15;12.27;;;;;;;;;;7380128;19;20007;-76
2023/12/17 08:52:04;;;;;;;29.63;13.05;;;;;;;;;;7381302;19;20015;-77
2023/12/17 08:54:29;;;;;;;30.48;12.25;;;;;;;;;;7401228;19;20001;-77
2023/12/17 08:56:55;;;;;;;27.17;10.60;;;;;;;;;;7380338;19;20002;-77
2023/12/17 08:59:20;;;;;;;30.42;11.30;;;;;;;;;;7378672;19;20006;-77
2023/12/17 09:01:45;;;;;;;23.25;10.25;;;;;;;;;;7379380;19;20074;-77
2023/12/17 09:04:11;;;;;;;23.92;9.50;;;;;;;;;;7372710;19;20054;-77
2023/12/17 09:06:44;;;;;;;24.58;10.77;;;;;;;;;;7392908;19;20003;-77
2023/12/17 09:09:10;;;;;;;23.45;10.63;;;;;;;;;;7373722;19;20038;-77
2023/12/17 09:11:35;;;;;;;28.92;9.77;;;;;;;;;;7373015;19;20010;-77
2023/12/17 09:14:01;;;;;;;29.55;10.65;;;;;;;;;;7380702;19;20077;-77
2023/12/17 09:16:27;;;;;;;30.10;10.77;;;;;;;;;;7379334;19;20011;-77
2023/12/17 09:18:53;;;;;;;24.52;9.80;;;;;;;;;;7407881;19;20032;-77
2023/12/17 09:21:18;;;;;;;30.63;11.05;;;;;;;;;;7385717;19;20010;-77
2023/12/17 09:23:44;;;;;;;22.63;9.43;;;;;;;;;;7378002;19;20002;-75
2023/12/17 09:26:09;;;;;;;23.73;10.02;;;;;;;;;;7382215;19;20326;-76
2023/12/17 09:28:35;;;;;;;32.33;9.90;;;;;;;;;;7386652;19;20009;-76
2023/12/17 09:31:01;;;;;;;24.33;9.85;;;;;;;;;;7384637;19;20002;-76
2023/12/17 09:33:27;;;;;;;24.80;10.13;;;;;;;;;;7405443;19;20032;-76
2023/12/17 09:35:53;;;;;;;22.17;9.25;;;;;;;;;;7378479;19;20018;-76
2023/12/17 09:38:18;;;;;;;24.23;10.52;;;;;;;;;;7375405;19;20013;-76
2023/12/17 09:40:47;;;;;;;27.35;10.05;;;;;;;;;;7374287;19;20010;-76
2023/12/17 09:43:13;;;;;;;22.10;9.63;;;;;;;;;;7373036;19;20082;-76
2023/12/17 09:45:41;;;;;;;26.58;10.88;;;;;;;;;;7400552;19;19994;-75
2023/12/17 09:48:06;;;;;;;26.23;10.77;;;;;;;;;;7380777;19;20070;-75
2023/12/17 09:50:32;;;;;;;29.40;11.20;;;;;;;;;;7381283;19;20373;-76
2023/12/17 09:52:58;;;;;;;27.85;12.48;;;;;;;;;;7377472;19;20154;-76
2023/12/17 09:55:24;;;;;;;30.58;13.82;;;;;;;;;;7382046;19;20018;-76
2023/12/17 09:57:50;;;;;;;29.65;13.13;;;;;;;;;;7402043;19;20646;-76
2023/12/17 10:00:20;;;;;;;29.60;11.13;;;;;;;;;;7388444;19;19998;-76
2023/12/17 10:02:47;;;;;;;26.25;11.05;;;;;;;;;;7380856;19;20034;-76
2023/12/17 10:05:13;;;;;;;28.67;11.10;;;;;;;;;;7380568;19;20002;-77
2023/12/17 10:07:39;;;;;;;26.33;10.73;;;;;;;;;;7379183;19;20450;-76
2023/12/17 10:10:04;;;;;;;25.20;11.27;;;;;;;;;;7380980;19;20078;-77
2023/12/17 10:12:30;;;;;;;23.77;9.35;;;;;;;;;;7404359;19;20498;-77
2023/12/17 10:14:56;;;;;;;26.88;10.27;;;;;;;;;;7381655;19;20137;-76
2023/12/17 10:17:21;;;;;;;24.35;11.15;;;;;;;;;;7382313;19;20360;-77
2023/12/17 10:19:51;;;;;;;24.25;11.38;;;;;;;;;;7377253;19;20003;-78
2023/12/17 10:22:17;;;;;;;23.08;9.73;;;;;;;;;;7375606;19;20014;-78
2023/12/17 10:24:42;;;;;;;23.90;10.25;;;;;;;;;;7400806;19;20044;-77
2023/12/17 10:27:16;;;;;;;25.85;10.07;;;;;;;;;;7376783;19;20077;-77
2023/12/17 10:29:44;;;;;;;28.33;9.70;;;;;;;;;;7375323;19;19999;-78
2023/12/17 10:32:10;;;;;;;18.67;8.85;;;;;;;;;;7380870;19;20026;-77
2023/12/17 10:34:37;;;;;;;19.75;9.32;;;;;;;;;;7375328;19;20010;-77
2023/12/17 10:37:04;;;;;;;16.45;7.93;;;;;;;;;;7381415;19;20015;-78
2023/12/17 10:39:32;;;;;;;15.63;8.23;;;;;;;;;;7405594;19;20075;-77
2023/12/17 10:41:59;;;;;;;13.65;6.97;;;;;;;;;;7384756;19;20050;-78
2023/12/17 10:44:26;;;;;;;15.50;6.88;;;;;;;;;;7385177;19;20006;-78
2023/12/17 10:46:54;;;;;;;16.52;8.20;;;;;;;;;;7387248;19;20078;-78
2023/12/17 10:49:20;;;;;;;16.20;8.38;;;;;;;;;;7381985;19;20014;-77
2023/12/17 10:51:48;;;;;;;12.77;5.72;;;;;;;;;;7400934;19;20069;-75
2023/12/17 10:54:13;;;;;;;10.00;5.47;;;;;;;;;;7375545;19;20452;-78
2023/12/17 10:56:44;;;;;;;11.82;5.68;;;;;;;;;;7370238;19;20031;-79
2023/12/17 10:59:17;;;;;;;11.93;5.50;;;;;;;;;;7375435;19;20014;-78
2023/12/17 11:01:44;;;;;;;11.02;5.70;;;;;;;;;;7383363;19;20006;-77
2023/12/17 11:04:09;;;;;;;12.82;5.70;;;;;;;;;;7374736;19;20007;-79
2023/12/17 11:06:35;;;;;;;9.85;5.35;;;;;;;;;;7402235;19;20011;-79
2023/12/17 11:09:00;;;;;;;9.93;5.55;;;;;;;;;;7375582;19;20007;-79
2023/12/17 11:11:30;;;;;;;10.75;5.30;;;;;;;;;;7375439;19;20022;-77
2023/12/17 11:13:56;;;;;;;9.63;5.20;;;;;;;;;;7377637;19;20046;-79
2023/12/17 11:16:26;;;;;;;38.05;21.67;;;;;;;;;;7392387;19;20226;-78
2023/12/17 11:18:51;;;;;;;30.63;18.70;;;;;;;;;;7413080;19;20006;-77
2023/12/17 11:21:17;;;;;;;10.40;6.13;;;;;;;;;;7389053;19;20010;-77
2023/12/17 11:23:51;;;;;;;10.63;5.22;;;;;;;;;;7384491;19;20019;-80
2023/12/17 11:26:17;;;;;;;10.02;4.95;;;;;;;;;;7384384;19;20015;-78
2023/12/17 11:28:46;;;;;;;11.85;4.90;;;;;;;;;;7379609;19;20045;-79
2023/12/17 11:31:12;;;;;;;9.85;5.18;;;;;;;;;;7379221;19;20098;-80
2023/12/17 11:33:39;;;;;;;10.82;5.65;;;;;;;;;;7400450;19;20109;-80
2023/12/17 11:36:08;;;;;;;10.88;5.85;;;;;;;;;;7380915;19;19999;-79
2023/12/17 11:38:35;;;;;;;10.25;5.78;;;;;;;;;;7389198;19;20031;-80
2023/12/17 11:41:01;;;;;;;11.00;5.35;;;;;;;;;;7389043;19;20014;-80
2023/12/17 11:43:26;;;;;;;12.07;5.50;;;;;;;;;;7382014;19;19995;-80
2023/12/17 11:45:52;;;;;;;11.50;6.45;;;;;;;;;;7403965;19;20407;-78
2023/12/17 11:48:20;;;;;;;11.77;5.75;;;;;;;;;;7385746;19;20002;-77
2023/12/17 11:50:56;;;;;;;10.50;5.47;;;;;;;;;;7382623;19;20003;-77
2023/12/17 11:53:23;;;;;;;12.18;6.25;;;;;;;;;;7382582;19;20014;-76
2023/12/17 11:55:56;;;;;;;12.40;5.97;;;;;;;;;;7376299;19;20313;-76
2023/12/17 11:58:23;;;;;;;11.95;6.30;;;;;;;;;;7371760;19;20027;-77
2023/12/17 12:01:05;;;;;;;13.07;6.43;;;;;;;;;;7392452;19;20017;-76
2023/12/17 12:03:31;;;;;;;12.75;6.72;;;;;;;;;;7375990;19;20006;-75
2023/12/17 12:06:11;;;;;;;14.10;6.88;;;;;;;;;;7369409;19;20026;-74
2023/12/17 12:08:48;;;;;;;12.93;6.97;;;;;;;;;;7372149;19;20572;-74
2023/12/17 12:11:15;;;;;;;14.32;6.82;;;;;;;;;;7373175;19;20404;-75
2023/12/17 12:13:48;;;;;;;59.22;33.00;;;;;;;;;;7373565;19;20038;-78
2023/12/17 12:16:14;;;;;;;14.48;7.03;;;;;;;;;;7372476;19;20051;-76
2023/12/17 12:18:41;;;;;;;14.93;6.82;;;;;;;;;;7397856;19;20127;-75
2023/12/17 12:21:21;;;;;;;17.48;7.75;;;;;;;;;;7379297;19;20533;-77
2023/12/17 12:23:54;;;;;;;14.00;7.33;;;;;;;;;;7370582;19;20036;-77
2023/12/17 12:26:21;;;;;;;16.17;6.97;;;;;;;;;;7368070;19;20731;-75
2023/12/17 12:28:54;;;;;;;14.52;7.03;;;;;;;;;;7368387;19;20009;-76
2023/12/17 12:31:19;;;;;;;14.25;6.75;;;;;;;;;;7368760;19;20019;-76
2023/12/17 12:34:04;;;;;;;14.85;7.20;;;;;;;;;;7389323;19;20372;-78
2023/12/17 12:36:47;;;;;;;12.98;6.60;;;;;;;;;;7371550;19;20016;-77
2023/12/17 12:39:14;;;;;;;12.90;6.38;;;;;;;;;;7373419;19;20581;-76
2023/12/17 12:41:44;;;;;;;12.70;6.45;;;;;;;;;;7374494;19;20047;-76
2023/12/17 12:44:12;;;;;;;13.25;6.32;;;;;;;;;;7370054;19;20011;-77
2023/12/17 12:46:37;;;;;;;41.35;20.95;;;;;;;;;;7370758;19;20007;-77
2023/12/17 12:49:03;;;;;;;22.17;13.70;;;;;;;;;;7371228;19;20035;-75
2023/12/17 12:51:28;;;;;;;10.60;5.78;;;;;;;;;;7386967;19;20010;-77
2023/12/17 12:53:54;;;;;;;11.80;6.13;;;;;;;;;;7368186;19;20017;-76
2023/12/17 12:56:19;;;;;;;12.10;6.72;;;;;;;;;;7371441;19;20014;-77
2023/12/17 12:58:44;;;;;;;11.60;5.70;;;;;;;;;;7379954;19;20031;-77
2023/12/17 13:01:10;;;;;;;14.45;6.88;;;;;;;;;;7380125;19;20389;-76
2023/12/17 13:03:36;;;;;;;12.68;6.43;;;;;;;;;;7396386;19;20031;-76
2023/12/17 13:06:03;;;;;;;14.40;7.20;;;;;;;;;;7373055;19;20037;-77
2023/12/17 13:08:29;;;;;;;12.20;6.55;;;;;;;;;;7379947;19;20058;-76
2023/12/17 13:10:55;;;;;;;13.13;6.45;;;;;;;;;;7376960;19;20006;-77
2023/12/17 13:13:20;;;;;;;14.90;6.85;;;;;;;;;;7374813;19;20013;-79
2023/12/17 13:15:46;;;;;;;15.77;7.13;;;;;;;;;;7393820;19;20013;-75
2023/12/17 13:18:11;;;;;;;14.73;8.25;;;;;;;;;;7370440;19;20031;-72
2023/12/17 13:20:36;;;;;;;13.85;6.82;;;;;;;;;;7369650;19;20029;-76
2023/12/17 13:23:02;;;;;;;15.48;6.75;;;;;;;;;;7370990;19;20007;-75
2023/12/17 13:25:29;;;;;;;14.10;7.15;;;;;;;;;;7370570;19;20046;-76
2023/12/17 13:27:55;;;;;;;12.32;7.03;;;;;;;;;;7392176;19;20353;-76
2023/12/17 13:30:20;;;;;;;13.05;6.88;;;;;;;;;;7387892;19;19998;-76
2023/12/17 13:32:45;;;;;;;14.20;6.65;;;;;;;;;;7367656;19;20006;-76
2023/12/17 13:35:11;;;;;;;15.13;7.00;;;;;;;;;;7370416;19;20019;-76
2023/12/17 13:37:37;;;;;;;12.95;7.57;;;;;;;;;;7371055;19;20006;-76
2023/12/17 13:40:04;;;;;;;12.32;7.07;;;;;;;;;;7373877;19;20006;-75
2023/12/17 13:42:30;;;;;;;13.02;7.05;;;;;;;;;;7396473;19;20033;-76
2023/12/17 13:44:55;;;;;;;13.32;7.38;;;;;;;;;;7371878;19;20381;-76
2023/12/17 13:47:20;;;;;;;12.80;7.38;;;;;;;;;;7372659;19;19999;-76
2023/12/17 13:49:45;;;;;;;14.88;7.70;;;;;;;;;;7373151;19;20374;-76
2023/12/17 13:52:11;;;;;;;16.33;8.13;;;;;;;;;;7370629;19;20377;-77
2023/12/17 13:54:36;;;;;;;17.73;9.35;;;;;;;;;;7394295;19;20456;-75
2023/12/17 13:57:02;;;;;;;16.30;9.18;;;;;;;;;;7370953;19;20032;-75
2023/12/17 13:59:28;;;;;;;18.98;8.30;;;;;;;;;;7369540;19;20484;-75
2023/12/17 14:01:53;;;;;;;22.17;9.90;;;;;;;;;;7372823;19;20027;-75
2023/12/17 14:04:19;;;;;;;28.73;13.35;;;;;;;;;;7374290;19;20006;-75
2023/12/17 14:06:44;;;;;;;31.52;14.95;;;;;;;;;;7398717;19;19999;-75
2023/12/17 14:09:10;;;;;;;29.90;14.02;;;;;;;;;;7373228;19;20007;-75
2023/12/17 14:11:38;;;;;;;31.40;13.50;;;;;;;;;;7371662;19;19998;-77
2023/12/17 14:14:04;;;;;;;38.85;15.45;;;;;;;;;;7372006;19;20330;-77
2023/12/17 14:16:30;;;;;;;32.63;14.23;;;;;;;;;;7373775;19;20035;-77
2023/12/17 14:18:55;;;;;;;32.53;14.23;;;;;;;;;;7373384;19;20003;-77
2023/12/17 14:21:21;;;;;;;38.35;15.30;;;;;;;;;;7391803;19;20567;-77